sensor_id;sensor_type;location;lat;lon;timestamp;P1;P2;P0
28026;PMS5003;15344;52.342;-1.290;2023-04-06T00:01:10;11;10;
28026;PMS5003;15344;52.342;-1.290;2023-04-06T00:03:35;10;10;
28026;PMS5003;15344;52.342;-1.290;2023-04-06T00:06:00;18;12;
28026;PMS5003;15344;52.342;-1.290;2023-04-06T00:08:26;9;9;
28026;PMS5003;15344;52.342;-1.290;2023-04-06T00:10:51;11;10;
28026;PMS5003;15344;52.342;-1.290;2023-04-06T00:13:17;17;11;
28026;PMS5003;15344;52.342;-1.290;2023-04-06T00:15:42;15;13;
28026;PMS5003;15344;52.342;-1.290;2023-04-06T00:18:08;12;11;
28026;PMS5003;15344;52.342;-1.290;2023-04-06T00:20:33;13;10;
28026;PMS5003;15344;52.342;-1.290;2023-04-06T00:22:59;11;8;
28026;PMS5003;15344;52.342;-1.290;2023-04-06T00:25:25;10;8;
28026;PMS5003;15344;52.342;-1.290;2023-04-06T00:27:49;16;13;
28026;PMS5003;15344;52.342;-1.290;2023-04-06T00:30:14;9;9;
28026;PMS5003;15344;52.342;-1.290;2023-04-06T00:32:39;12;12;
28026;PMS5003;15344;52.342;-1.290;2023-04-06T00:35:05;12;9;
28026;PMS5003;15344;52.342;-1.290;2023-04-06T00:37:30;14;12;
28026;PMS5003;15344;52.342;-1.290;2023-04-06T00:39:56;12;11;
28026;PMS5003;15344;52.342;-1.290;2023-04-06T00:42:21;16;11;
28026;PMS5003;15344;52.342;-1.290;2023-04-06T00:44:46;14;10;
28026;PMS5003;15344;52.342;-1.290;2023-04-06T00:47:11;16;10;
28026;PMS5003;15344;52.342;-1.290;2023-04-06T00:49:37;15;11;
28026;PMS5003;15344;52.342;-1.290;2023-04-06T00:52:02;10;10;
28026;PMS5003;15344;52.342;-1.290;2023-04-06T00:54:28;12;10;
28026;PMS5003;15344;52.342;-1.290;2023-04-06T00:56:53;10;10;
28026;PMS5003;15344;52.342;-1.290;2023-04-06T00:59:18;14;11;
28026;PMS5003;15344;52.342;-1.290;2023-04-06T01:01:43;10;8;
28026;PMS5003;15344;52.342;-1.290;2023-04-06T01:04:09;13;11;
28026;PMS5003;15344;52.342;-1.290;2023-04-06T01:06:34;11;9;
28026;PMS5003;15344;52.342;-1.290;2023-04-06T01:08:59;17;10;
28026;PMS5003;15344;52.342;-1.290;2023-04-06T01:11:24;14;11;
28026;PMS5003;15344;52.342;-1.290;2023-04-06T01:13:49;15;13;
28026;PMS5003;15344;52.342;-1.290;2023-04-06T01:16:14;12;11;
28026;PMS5003;15344;52.342;-1.290;2023-04-06T01:18:40;8;8;
28026;PMS5003;15344;52.342;-1.290;2023-04-06T01:21:05;12;9;
28026;PMS5003;15344;52.342;-1.290;2023-04-06T01:23:30;12;11;
28026;PMS5003;15344;52.342;-1.290;2023-04-06T01:25:56;11;11;
28026;PMS5003;15344;52.342;-1.290;2023-04-06T01:28:21;11;10;
28026;PMS5003;15344;52.342;-1.290;2023-04-06T01:30:46;13;11;
28026;PMS5003;15344;52.342;-1.290;2023-04-06T01:33:11;11;9;
28026;PMS5003;15344;52.342;-1.290;2023-04-06T01:35:37;8;8;
28026;PMS5003;15344;52.342;-1.290;2023-04-06T01:38:01;10;9;
28026;PMS5003;15344;52.342;-1.290;2023-04-06T01:40:26;15;13;
28026;PMS5003;15344;52.342;-1.290;2023-04-06T01:42:52;13;13;
28026;PMS5003;15344;52.342;-1.290;2023-04-06T01:45:17;15;11;
28026;PMS5003;15344;52.342;-1.290;2023-04-06T01:47:43;14;11;
28026;PMS5003;15344;52.342;-1.290;2023-04-06T01:50:08;11;11;
28026;PMS5003;15344;52.342;-1.290;2023-04-06T01:52:33;12;9;
28026;PMS5003;15344;52.342;-1.290;2023-04-06T01:54:59;12;10;
28026;PMS5003;15344;52.342;-1.290;2023-04-06T01:57:24;13;11;
28026;PMS5003;15344;52.342;-1.290;2023-04-06T01:59:49;11;10;
28026;PMS5003;15344;52.342;-1.290;2023-04-06T02:02:15;13;11;
28026;PMS5003;15344;52.342;-1.290;2023-04-06T02:04:40;15;12;
28026;PMS5003;15344;52.342;-1.290;2023-04-06T02:07:05;12;11;
28026;PMS5003;15344;52.342;-1.290;2023-04-06T02:09:31;9;7;
28026;PMS5003;15344;52.342;-1.290;2023-04-06T02:11:56;15;11;
28026;PMS5003;15344;52.342;-1.290;2023-04-06T02:14:23;10;10;
28026;PMS5003;15344;52.342;-1.290;2023-04-06T02:16:47;9;9;
28026;PMS5003;15344;52.342;-1.290;2023-04-06T02:19:12;9;9;
28026;PMS5003;15344;52.342;-1.290;2023-04-06T02:21:37;9;8;
28026;PMS5003;15344;52.342;-1.290;2023-04-06T02:24:02;12;10;
28026;PMS5003;15344;52.342;-1.290;2023-04-06T02:26:27;16;12;
28026;PMS5003;15344;52.342;-1.290;2023-04-06T02:28:53;16;12;
28026;PMS5003;15344;52.342;-1.290;2023-04-06T02:31:18;17;14;
28026;PMS5003;15344;52.342;-1.290;2023-04-06T02:33:44;15;10;
28026;PMS5003;15344;52.342;-1.290;2023-04-06T02:36:09;11;11;
28026;PMS5003;15344;52.342;-1.290;2023-04-06T02:38:34;17;15;
28026;PMS5003;15344;52.342;-1.290;2023-04-06T02:41:05;17;16;
28026;PMS5003;15344;52.342;-1.290;2023-04-06T02:43:26;15;13;
28026;PMS5003;15344;52.342;-1.290;2023-04-06T02:45:51;19;14;
28026;PMS5003;15344;52.342;-1.290;2023-04-06T02:48:17;13;12;
28026;PMS5003;15344;52.342;-1.290;2023-04-06T02:50:42;16;13;
28026;PMS5003;15344;52.342;-1.290;2023-04-06T02:53:07;16;16;
28026;PMS5003;15344;52.342;-1.290;2023-04-06T02:55:33;23;19;
28026;PMS5003;15344;52.342;-1.290;2023-04-06T02:57:59;24;22;
28026;PMS5003;15344;52.342;-1.290;2023-04-06T03:00:23;18;18;
28026;PMS5003;15344;52.342;-1.290;2023-04-06T03:02:49;17;13;
28026;PMS5003;15344;52.342;-1.290;2023-04-06T03:05:14;19;18;
28026;PMS5003;15344;52.342;-1.290;2023-04-06T03:07:40;23;20;
28026;PMS5003;15344;52.342;-1.290;2023-04-06T03:10:05;22;17;
28026;PMS5003;15344;52.342;-1.290;2023-04-06T03:12:31;20;18;
28026;PMS5003;15344;52.342;-1.290;2023-04-06T03:14:56;19;16;
28026;PMS5003;15344;52.342;-1.290;2023-04-06T03:17:21;25;18;
28026;PMS5003;15344;52.342;-1.290;2023-04-06T03:19:46;16;16;
28026;PMS5003;15344;52.342;-1.290;2023-04-06T03:22:12;18;18;
28026;PMS5003;15344;52.342;-1.290;2023-04-06T03:24:37;21;17;
28026;PMS5003;15344;52.342;-1.290;2023-04-06T03:27:03;19;17;
28026;PMS5003;15344;52.342;-1.290;2023-04-06T03:29:27;19;15;
28026;PMS5003;15344;52.342;-1.290;2023-04-06T03:31:53;25;21;
28026;PMS5003;15344;52.342;-1.290;2023-04-06T03:34:18;25;23;
28026;PMS5003;15344;52.342;-1.290;2023-04-06T03:36:44;25;21;
28026;PMS5003;15344;52.342;-1.290;2023-04-06T03:39:09;20;18;
28026;PMS5003;15344;52.342;-1.290;2023-04-06T03:41:34;18;18;
28026;PMS5003;15344;52.342;-1.290;2023-04-06T03:43:59;21;18;
28026;PMS5003;15344;52.342;-1.290;2023-04-06T03:46:25;25;18;
28026;PMS5003;15344;52.342;-1.290;2023-04-06T03:48:51;26;23;
28026;PMS5003;15344;52.342;-1.290;2023-04-06T03:51:16;22;20;
28026;PMS5003;15344;52.342;-1.290;2023-04-06T03:53:42;17;17;
28026;PMS5003;15344;52.342;-1.290;2023-04-06T03:56:08;21;18;
28026;PMS5003;15344;52.342;-1.290;2023-04-06T03:58:33;21;19;
28026;PMS5003;15344;52.342;-1.290;2023-04-06T04:00:58;21;16;
28026;PMS5003;15344;52.342;-1.290;2023-04-06T04:03:23;20;15;
28026;PMS5003;15344;52.342;-1.290;2023-04-06T04:05:49;18;15;
28026;PMS5003;15344;52.342;-1.290;2023-04-06T04:08:14;17;16;
28026;PMS5003;15344;52.342;-1.290;2023-04-06T04:10:40;18;15;
28026;PMS5003;15344;52.342;-1.290;2023-04-06T04:13:06;18;16;
28026;PMS5003;15344;52.342;-1.290;2023-04-06T04:15:36;21;16;
28026;PMS5003;15344;52.342;-1.290;2023-04-06T04:17:56;20;16;
28026;PMS5003;15344;52.342;-1.290;2023-04-06T04:20:22;17;15;
28026;PMS5003;15344;52.342;-1.290;2023-04-06T04:22:47;24;18;
28026;PMS5003;15344;52.342;-1.290;2023-04-06T04:25:13;16;16;
28026;PMS5003;15344;52.342;-1.290;2023-04-06T04:27:38;20;18;
28026;PMS5003;15344;52.342;-1.290;2023-04-06T04:30:05;21;19;
28026;PMS5003;15344;52.342;-1.290;2023-04-06T04:32:29;20;16;
28026;PMS5003;15344;52.342;-1.290;2023-04-06T04:34:55;22;16;
28026;PMS5003;15344;52.342;-1.290;2023-04-06T04:37:20;17;14;
28026;PMS5003;15344;52.342;-1.290;2023-04-06T04:39:46;16;13;
28026;PMS5003;15344;52.342;-1.290;2023-04-06T04:42:11;17;15;
28026;PMS5003;15344;52.342;-1.290;2023-04-06T04:44:37;17;15;
28026;PMS5003;15344;52.342;-1.290;2023-04-06T04:47:02;22;19;
28026;PMS5003;15344;52.342;-1.290;2023-04-06T04:49:28;20;17;
28026;PMS5003;15344;52.342;-1.290;2023-04-06T04:51:53;23;20;
28026;PMS5003;15344;52.342;-1.290;2023-04-06T04:54:19;24;22;
28026;PMS5003;15344;52.342;-1.290;2023-04-06T04:56:44;16;15;
28026;PMS5003;15344;52.342;-1.290;2023-04-06T04:59:10;19;18;
28026;PMS5003;15344;52.342;-1.290;2023-04-06T05:01:36;20;18;
28026;PMS5003;15344;52.342;-1.290;2023-04-06T05:04:01;23;19;
28026;PMS5003;15344;52.342;-1.290;2023-04-06T05:06:27;19;15;
28026;PMS5003;15344;52.342;-1.290;2023-04-06T05:08:52;20;18;
28026;PMS5003;15344;52.342;-1.290;2023-04-06T05:11:17;16;15;
28026;PMS5003;15344;52.342;-1.290;2023-04-06T05:13:43;18;14;
28026;PMS5003;15344;52.342;-1.290;2023-04-06T05:16:09;18;14;
28026;PMS5003;15344;52.342;-1.290;2023-04-06T05:18:34;24;18;
28026;PMS5003;15344;52.342;-1.290;2023-04-06T05:21:00;19;16;
28026;PMS5003;15344;52.342;-1.290;2023-04-06T05:23:25;19;15;
28026;PMS5003;15344;52.342;-1.290;2023-04-06T05:25:50;20;18;
28026;PMS5003;15344;52.342;-1.290;2023-04-06T05:28:16;22;16;
28026;PMS5003;15344;52.342;-1.290;2023-04-06T05:30:42;20;14;
28026;PMS5003;15344;52.342;-1.290;2023-04-06T05:33:07;16;15;
28026;PMS5003;15344;52.342;-1.290;2023-04-06T05:35:32;18;16;
28026;PMS5003;15344;52.342;-1.290;2023-04-06T05:37:58;14;12;
28026;PMS5003;15344;52.342;-1.290;2023-04-06T05:40:23;13;13;
28026;PMS5003;15344;52.342;-1.290;2023-04-06T05:42:49;17;17;
28026;PMS5003;15344;52.342;-1.290;2023-04-06T05:45:14;17;15;
28026;PMS5003;15344;52.342;-1.290;2023-04-06T05:47:39;21;16;
28026;PMS5003;15344;52.342;-1.290;2023-04-06T05:50:05;19;17;
28026;PMS5003;15344;52.342;-1.290;2023-04-06T05:52:30;16;13;
28026;PMS5003;15344;52.342;-1.290;2023-04-06T05:54:55;20;16;
28026;PMS5003;15344;52.342;-1.290;2023-04-06T05:57:21;14;14;
28026;PMS5003;15344;52.342;-1.290;2023-04-06T05:59:46;14;14;
28026;PMS5003;15344;52.342;-1.290;2023-04-06T06:02:11;20;15;
28026;PMS5003;15344;52.342;-1.290;2023-04-06T06:04:36;22;18;
28026;PMS5003;15344;52.342;-1.290;2023-04-06T06:07:01;17;14;
28026;PMS5003;15344;52.342;-1.290;2023-04-06T06:09:27;23;18;
28026;PMS5003;15344;52.342;-1.290;2023-04-06T06:11:52;22;19;
28026;PMS5003;15344;52.342;-1.290;2023-04-06T06:14:18;25;18;
28026;PMS5003;15344;52.342;-1.290;2023-04-06T06:16:43;23;19;
28026;PMS5003;15344;52.342;-1.290;2023-04-06T06:19:09;27;18;
28026;PMS5003;15344;52.342;-1.290;2023-04-06T06:21:34;20;18;
28026;PMS5003;15344;52.342;-1.290;2023-04-06T06:23:59;18;15;
28026;PMS5003;15344;52.342;-1.290;2023-04-06T06:26:24;18;14;
28026;PMS5003;15344;52.342;-1.290;2023-04-06T06:28:50;15;13;
28026;PMS5003;15344;52.342;-1.290;2023-04-06T06:31:16;21;19;
28026;PMS5003;15344;52.342;-1.290;2023-04-06T06:33:41;19;15;
28026;PMS5003;15344;52.342;-1.290;2023-04-06T06:36:06;16;14;
28026;PMS5003;15344;52.342;-1.290;2023-04-06T06:38:32;15;12;
28026;PMS5003;15344;52.342;-1.290;2023-04-06T06:40:58;11;11;
28026;PMS5003;15344;52.342;-1.290;2023-04-06T06:43:24;16;15;
28026;PMS5003;15344;52.342;-1.290;2023-04-06T06:45:50;11;11;
28026;PMS5003;15344;52.342;-1.290;2023-04-06T06:48:15;12;11;
28026;PMS5003;15344;52.342;-1.290;2023-04-06T06:50:41;13;12;
28026;PMS5003;15344;52.342;-1.290;2023-04-06T06:53:06;14;10;
28026;PMS5003;15344;52.342;-1.290;2023-04-06T06:55:31;16;12;
28026;PMS5003;15344;52.342;-1.290;2023-04-06T06:57:57;15;11;
28026;PMS5003;15344;52.342;-1.290;2023-04-06T07:00:22;12;10;
28026;PMS5003;15344;52.342;-1.290;2023-04-06T07:02:47;12;10;
28026;PMS5003;15344;52.342;-1.290;2023-04-06T07:05:12;15;11;
28026;PMS5003;15344;52.342;-1.290;2023-04-06T07:07:38;15;12;
28026;PMS5003;15344;52.342;-1.290;2023-04-06T07:10:04;14;12;
28026;PMS5003;15344;52.342;-1.290;2023-04-06T07:12:29;12;9;
28026;PMS5003;15344;52.342;-1.290;2023-04-06T07:14:55;8;8;
28026;PMS5003;15344;52.342;-1.290;2023-04-06T07:17:20;9;7;
28026;PMS5003;15344;52.342;-1.290;2023-04-06T07:19:45;9;9;
28026;PMS5003;15344;52.342;-1.290;2023-04-06T07:22:10;9;8;
28026;PMS5003;15344;52.342;-1.290;2023-04-06T07:24:37;8;7;
28026;PMS5003;15344;52.342;-1.290;2023-04-06T07:27:02;14;10;
28026;PMS5003;15344;52.342;-1.290;2023-04-06T07:29:28;11;9;
28026;PMS5003;15344;52.342;-1.290;2023-04-06T07:31:54;9;8;
28026;PMS5003;15344;52.342;-1.290;2023-04-06T07:34:19;7;7;
28026;PMS5003;15344;52.342;-1.290;2023-04-06T07:36:45;7;6;
28026;PMS5003;15344;52.342;-1.290;2023-04-06T07:39:11;7;7;
28026;PMS5003;15344;52.342;-1.290;2023-04-06T07:41:37;8;8;
28026;PMS5003;15344;52.342;-1.290;2023-04-06T07:44:02;9;5;
28026;PMS5003;15344;52.342;-1.290;2023-04-06T07:46:27;5;5;
28026;PMS5003;15344;52.342;-1.290;2023-04-06T07:48:53;5;5;
28026;PMS5003;15344;52.342;-1.290;2023-04-06T07:51:18;9;7;
28026;PMS5003;15344;52.342;-1.290;2023-04-06T07:53:43;7;7;
28026;PMS5003;15344;52.342;-1.290;2023-04-06T07:56:08;13;7;
28026;PMS5003;15344;52.342;-1.290;2023-04-06T07:58:34;8;7;
28026;PMS5003;15344;52.342;-1.290;2023-04-06T08:00:59;11;11;
28026;PMS5003;15344;52.342;-1.290;2023-04-06T08:03:24;7;6;
28026;PMS5003;15344;52.342;-1.290;2023-04-06T08:05:50;7;6;
28026;PMS5003;15344;52.342;-1.290;2023-04-06T08:08:16;8;8;
28026;PMS5003;15344;52.342;-1.290;2023-04-06T08:10:41;7;7;
28026;PMS5003;15344;52.342;-1.290;2023-04-06T08:13:08;7;6;
28026;PMS5003;15344;52.342;-1.290;2023-04-06T08:15:32;8;7;
28026;PMS5003;15344;52.342;-1.290;2023-04-06T08:17:57;8;5;
28026;PMS5003;15344;52.342;-1.290;2023-04-06T08:20:28;5;5;
28026;PMS5003;15344;52.342;-1.290;2023-04-06T08:22:48;8;8;
28026;PMS5003;15344;52.342;-1.290;2023-04-06T08:25:14;8;8;
28026;PMS5003;15344;52.342;-1.290;2023-04-06T08:27:39;10;6;
28026;PMS5003;15344;52.342;-1.290;2023-04-06T08:30:05;9;8;
28026;PMS5003;15344;52.342;-1.290;2023-04-06T08:32:30;9;9;
28026;PMS5003;15344;52.342;-1.290;2023-04-06T08:34:56;10;7;
28026;PMS5003;15344;52.342;-1.290;2023-04-06T08:37:21;10;10;
28026;PMS5003;15344;52.342;-1.290;2023-04-06T08:39:46;6;6;
28026;PMS5003;15344;52.342;-1.290;2023-04-06T08:42:12;5;5;
28026;PMS5003;15344;52.342;-1.290;2023-04-06T08:44:37;5;5;
28026;PMS5003;15344;52.342;-1.290;2023-04-06T08:47:02;9;7;
28026;PMS5003;15344;52.342;-1.290;2023-04-06T08:49:27;8;5;
28026;PMS5003;15344;52.342;-1.290;2023-04-06T08:51:53;5;4;
28026;PMS5003;15344;52.342;-1.290;2023-04-06T08:54:18;5;4;
28026;PMS5003;15344;52.342;-1.290;2023-04-06T08:56:43;6;5;
28026;PMS5003;15344;52.342;-1.290;2023-04-06T08:59:09;9;8;
28026;PMS5003;15344;52.342;-1.290;2023-04-06T09:01:36;9;5;
28026;PMS5003;15344;52.342;-1.290;2023-04-06T09:04:00;4;4;
28026;PMS5003;15344;52.342;-1.290;2023-04-06T09:06:25;6;6;
28026;PMS5003;15344;52.342;-1.290;2023-04-06T09:08:50;6;5;
28026;PMS5003;15344;52.342;-1.290;2023-04-06T09:11:16;6;5;
28026;PMS5003;15344;52.342;-1.290;2023-04-06T09:13:44;8;7;
28026;PMS5003;15344;52.342;-1.290;2023-04-06T09:16:06;7;6;
28026;PMS5003;15344;52.342;-1.290;2023-04-06T09:18:32;6;6;
28026;PMS5003;15344;52.342;-1.290;2023-04-06T09:20:57;6;5;
28026;PMS5003;15344;52.342;-1.290;2023-04-06T09:23:22;7;6;
28026;PMS5003;15344;52.342;-1.290;2023-04-06T09:25:47;4;3;
28026;PMS5003;15344;52.342;-1.290;2023-04-06T09:28:12;6;4;
28026;PMS5003;15344;52.342;-1.290;2023-04-06T09:33:03;6;6;
28026;PMS5003;15344;52.342;-1.290;2023-04-06T09:35:33;8;5;
28026;PMS5003;15344;52.342;-1.290;2023-04-06T09:37:54;6;3;
28026;PMS5003;15344;52.342;-1.290;2023-04-06T09:40:24;3;3;
28026;PMS5003;15344;52.342;-1.290;2023-04-06T09:42:45;8;7;
28026;PMS5003;15344;52.342;-1.290;2023-04-06T09:45:10;4;4;
28026;PMS5003;15344;52.342;-1.290;2023-04-06T09:47:35;6;5;
28026;PMS5003;15344;52.342;-1.290;2023-04-06T09:50:00;4;4;
28026;PMS5003;15344;52.342;-1.290;2023-04-06T09:52:26;5;5;
28026;PMS5003;15344;52.342;-1.290;2023-04-06T09:54:50;8;6;
28026;PMS5003;15344;52.342;-1.290;2023-04-06T09:57:18;4;4;
28026;PMS5003;15344;52.342;-1.290;2023-04-06T09:59:43;4;3;
28026;PMS5003;15344;52.342;-1.290;2023-04-06T10:02:05;6;4;
28026;PMS5003;15344;52.342;-1.290;2023-04-06T10:04:33;4;4;
28026;PMS5003;15344;52.342;-1.290;2023-04-06T10:06:56;5;3;
28026;PMS5003;15344;52.342;-1.290;2023-04-06T10:09:22;7;5;
28026;PMS5003;15344;52.342;-1.290;2023-04-06T10:11:47;5;5;
28026;PMS5003;15344;52.342;-1.290;2023-04-06T10:14:11;4;4;
28026;PMS5003;15344;52.342;-1.290;2023-04-06T10:16:37;5;4;
28026;PMS5003;15344;52.342;-1.290;2023-04-06T10:19:12;3;3;
28026;PMS5003;15344;52.342;-1.290;2023-04-06T10:21:27;9;6;
28026;PMS5003;15344;52.342;-1.290;2023-04-06T10:23:53;4;4;
28026;PMS5003;15344;52.342;-1.290;2023-04-06T10:26:19;3;3;
28026;PMS5003;15344;52.342;-1.290;2023-04-06T10:28:43;3;3;
28026;PMS5003;15344;52.342;-1.290;2023-04-06T10:31:07;6;3;
28026;PMS5003;15344;52.342;-1.290;2023-04-06T10:33:32;3;2;
28026;PMS5003;15344;52.342;-1.290;2023-04-06T10:35:58;5;5;
28026;PMS5003;15344;52.342;-1.290;2023-04-06T10:40:48;3;3;
28026;PMS5003;15344;52.342;-1.290;2023-04-06T10:43:13;4;4;
28026;PMS5003;15344;52.342;-1.290;2023-04-06T10:45:38;3;3;
28026;PMS5003;15344;52.342;-1.290;2023-04-06T10:50:28;2;2;
28026;PMS5003;15344;52.342;-1.290;2023-04-06T10:55:18;5;2;
28026;PMS5003;15344;52.342;-1.290;2023-04-06T10:57:43;5;4;
28026;PMS5003;15344;52.342;-1.290;2023-04-06T11:00:11;2;2;
28026;PMS5003;15344;52.342;-1.290;2023-04-06T11:02:34;5;4;
28026;PMS5003;15344;52.342;-1.290;2023-04-06T11:04:59;7;4;
28026;PMS5003;15344;52.342;-1.290;2023-04-06T11:07:24;5;5;
28026;PMS5003;15344;52.342;-1.290;2023-04-06T11:09:49;3;3;
28026;PMS5003;15344;52.342;-1.290;2023-04-06T11:14:39;4;3;
28026;PMS5003;15344;52.342;-1.290;2023-04-06T11:17:04;3;3;
28026;PMS5003;15344;52.342;-1.290;2023-04-06T11:19:29;3;2;
28026;PMS5003;15344;52.342;-1.290;2023-04-06T11:21:55;3;3;
28026;PMS5003;15344;52.342;-1.290;2023-04-06T11:24:20;3;2;
28026;PMS5003;15344;52.342;-1.290;2023-04-06T11:26:46;4;2;
28026;PMS5003;15344;52.342;-1.290;2023-04-06T11:29:11;8;6;
28026;PMS5003;15344;52.342;-1.290;2023-04-06T11:34:00;3;1;
28026;PMS5003;15344;52.342;-1.290;2023-04-06T11:36:27;6;4;
28026;PMS5003;15344;52.342;-1.290;2023-04-06T11:38:51;4;4;
28026;PMS5003;15344;52.342;-1.290;2023-04-06T11:41:16;4;4;
28026;PMS5003;15344;52.342;-1.290;2023-04-06T11:43:46;4;3;
28026;PMS5003;15344;52.342;-1.290;2023-04-06T11:46:07;8;5;
28026;PMS5003;15344;52.342;-1.290;2023-04-06T11:48:32;5;4;
28026;PMS5003;15344;52.342;-1.290;2023-04-06T11:50:58;4;3;
28026;PMS5003;15344;52.342;-1.290;2023-04-06T11:53:23;4;3;
28026;PMS5003;15344;52.342;-1.290;2023-04-06T11:55:53;3;3;
28026;PMS5003;15344;52.342;-1.290;2023-04-06T11:58:13;5;4;
28026;PMS5003;15344;52.342;-1.290;2023-04-06T12:00:38;3;3;
28026;PMS5003;15344;52.342;-1.290;2023-04-06T12:03:03;6;3;
28026;PMS5003;15344;52.342;-1.290;2023-04-06T12:05:28;2;2;
28026;PMS5003;15344;52.342;-1.290;2023-04-06T12:07:54;5;4;
28026;PMS5003;15344;52.342;-1.290;2023-04-06T12:10:19;3;3;
28026;PMS5003;15344;52.342;-1.290;2023-04-06T12:12:44;3;3;
28026;PMS5003;15344;52.342;-1.290;2023-04-06T12:15:09;2;2;
28026;PMS5003;15344;52.342;-1.290;2023-04-06T12:17:35;2;2;
28026;PMS5003;15344;52.342;-1.290;2023-04-06T12:19:59;2;2;
28026;PMS5003;15344;52.342;-1.290;2023-04-06T12:22:25;2;2;
28026;PMS5003;15344;52.342;-1.290;2023-04-06T12:24:50;3;2;
28026;PMS5003;15344;52.342;-1.290;2023-04-06T12:27:15;4;2;
28026;PMS5003;15344;52.342;-1.290;2023-04-06T12:29:41;4;3;
28026;PMS5003;15344;52.342;-1.290;2023-04-06T12:32:06;6;1;
28026;PMS5003;15344;52.342;-1.290;2023-04-06T12:34:31;2;1;
28026;PMS5003;15344;52.342;-1.290;2023-04-06T12:36:56;0;0;
28026;PMS5003;15344;52.342;-1.290;2023-04-06T12:39:21;2;1;
28026;PMS5003;15344;52.342;-1.290;2023-04-06T12:41:47;1;1;
28026;PMS5003;15344;52.342;-1.290;2023-04-06T12:44:12;2;2;
28026;PMS5003;15344;52.342;-1.290;2023-04-06T12:46:37;0;0;
28026;PMS5003;15344;52.342;-1.290;2023-04-06T12:49:02;3;1;
28026;PMS5003;15344;52.342;-1.290;2023-04-06T12:51:28;1;1;
28026;PMS5003;15344;52.342;-1.290;2023-04-06T12:53:53;1;1;
28026;PMS5003;15344;52.342;-1.290;2023-04-06T12:56:18;3;1;
28026;PMS5003;15344;52.342;-1.290;2023-04-06T12:58:43;4;3;
28026;PMS5003;15344;52.342;-1.290;2023-04-06T13:01:09;2;2;
28026;PMS5003;15344;52.342;-1.290;2023-04-06T13:03:34;2;1;
28026;PMS5003;15344;52.342;-1.290;2023-04-06T13:05:59;2;2;
28026;PMS5003;15344;52.342;-1.290;2023-04-06T13:08:25;0;0;
28026;PMS5003;15344;52.342;-1.290;2023-04-06T13:10:51;5;5;
28026;PMS5003;15344;52.342;-1.290;2023-04-06T13:13:16;7;3;
28026;PMS5003;15344;52.342;-1.290;2023-04-06T13:15:41;1;1;
28026;PMS5003;15344;52.342;-1.290;2023-04-06T13:18:06;5;2;
28026;PMS5003;15344;52.342;-1.290;2023-04-06T13:20:31;4;2;
28026;PMS5003;15344;52.342;-1.290;2023-04-06T13:22:56;5;1;
28026;PMS5003;15344;52.342;-1.290;2023-04-06T13:25:21;5;3;
28026;PMS5003;15344;52.342;-1.290;2023-04-06T13:27:47;6;3;
28026;PMS5003;15344;52.342;-1.290;2023-04-06T13:30:12;1;1;
28026;PMS5003;15344;52.342;-1.290;2023-04-06T13:32:38;2;2;
28026;PMS5003;15344;52.342;-1.290;2023-04-06T13:35:03;1;0;
28026;PMS5003;15344;52.342;-1.290;2023-04-06T13:37:28;1;0;
28026;PMS5003;15344;52.342;-1.290;2023-04-06T13:39:53;3;1;
28026;PMS5003;15344;52.342;-1.290;2023-04-06T13:42:19;4;4;
28026;PMS5003;15344;52.342;-1.290;2023-04-06T13:44:44;2;2;
28026;PMS5003;15344;52.342;-1.290;2023-04-06T13:47:09;3;1;
28026;PMS5003;15344;52.342;-1.290;2023-04-06T13:49:34;2;2;
28026;PMS5003;15344;52.342;-1.290;2023-04-06T13:52:00;0;0;
28026;PMS5003;15344;52.342;-1.290;2023-04-06T13:54:26;2;2;
28026;PMS5003;15344;52.342;-1.290;2023-04-06T13:56:51;0;0;
28026;PMS5003;15344;52.342;-1.290;2023-04-06T13:59:15;1;0;
28026;PMS5003;15344;52.342;-1.290;2023-04-06T14:01:40;3;1;
28026;PMS5003;15344;52.342;-1.290;2023-04-06T14:04:06;2;0;
28026;PMS5003;15344;52.342;-1.290;2023-04-06T14:06:31;2;1;
28026;PMS5003;15344;52.342;-1.290;2023-04-06T14:08:56;2;2;
28026;PMS5003;15344;52.342;-1.290;2023-04-06T14:11:22;4;3;
28026;PMS5003;15344;52.342;-1.290;2023-04-06T14:13:47;2;1;
28026;PMS5003;15344;52.342;-1.290;2023-04-06T14:16:12;2;0;
28026;PMS5003;15344;52.342;-1.290;2023-04-06T14:18:37;0;0;
28026;PMS5003;15344;52.342;-1.290;2023-04-06T14:21:03;1;1;
28026;PMS5003;15344;52.342;-1.290;2023-04-06T14:23:28;1;1;
28026;PMS5003;15344;52.342;-1.290;2023-04-06T14:28:20;1;0;
28026;PMS5003;15344;52.342;-1.290;2023-04-06T14:30:43;1;1;
28026;PMS5003;15344;52.342;-1.290;2023-04-06T14:33:09;1;1;
28026;PMS5003;15344;52.342;-1.290;2023-04-06T14:35:37;0;0;
28026;PMS5003;15344;52.342;-1.290;2023-04-06T14:37:59;2;1;
28026;PMS5003;15344;52.342;-1.290;2023-04-06T14:40:25;12;8;
28026;PMS5003;15344;52.342;-1.290;2023-04-06T14:42:50;1;1;
28026;PMS5003;15344;52.342;-1.290;2023-04-06T14:45:16;1;1;
28026;PMS5003;15344;52.342;-1.290;2023-04-06T14:47:41;0;0;
28026;PMS5003;15344;52.342;-1.290;2023-04-06T14:50:06;1;1;
28026;PMS5003;15344;52.342;-1.290;2023-04-06T14:52:31;3;1;
28026;PMS5003;15344;52.342;-1.290;2023-04-06T14:54:57;1;1;
28026;PMS5003;15344;52.342;-1.290;2023-04-06T14:57:22;3;1;
28026;PMS5003;15344;52.342;-1.290;2023-04-06T14:59:47;5;1;
28026;PMS5003;15344;52.342;-1.290;2023-04-06T15:02:12;2;2;
28026;PMS5003;15344;52.342;-1.290;2023-04-06T15:04:38;1;1;
28026;PMS5003;15344;52.342;-1.290;2023-04-06T15:07:03;0;0;
28026;PMS5003;15344;52.342;-1.290;2023-04-06T15:09:28;3;1;
28026;PMS5003;15344;52.342;-1.290;2023-04-06T15:11:53;0;0;
28026;PMS5003;15344;52.342;-1.290;2023-04-06T15:14:19;1;0;
28026;PMS5003;15344;52.342;-1.290;2023-04-06T15:16:44;3;2;
28026;PMS5003;15344;52.342;-1.290;2023-04-06T15:19:09;3;2;
28026;PMS5003;15344;52.342;-1.290;2023-04-06T15:21:34;2;1;
28026;PMS5003;15344;52.342;-1.290;2023-04-06T15:24:00;4;2;
28026;PMS5003;15344;52.342;-1.290;2023-04-06T15:26:25;3;1;
28026;PMS5003;15344;52.342;-1.290;2023-04-06T15:28:50;0;0;
28026;PMS5003;15344;52.342;-1.290;2023-04-06T15:31:16;2;0;
28026;PMS5003;15344;52.342;-1.290;2023-04-06T15:33:41;2;1;
28026;PMS5003;15344;52.342;-1.290;2023-04-06T15:36:06;1;1;
28026;PMS5003;15344;52.342;-1.290;2023-04-06T15:38:31;0;0;
28026;PMS5003;15344;52.342;-1.290;2023-04-06T15:40:57;0;0;
28026;PMS5003;15344;52.342;-1.290;2023-04-06T15:43:22;1;1;
28026;PMS5003;15344;52.342;-1.290;2023-04-06T15:45:47;1;1;
28026;PMS5003;15344;52.342;-1.290;2023-04-06T15:48:12;2;1;
28026;PMS5003;15344;52.342;-1.290;2023-04-06T15:50:38;2;2;
28026;PMS5003;15344;52.342;-1.290;2023-04-06T15:53:03;4;4;
28026;PMS5003;15344;52.342;-1.290;2023-04-06T15:55:28;4;4;
28026;PMS5003;15344;52.342;-1.290;2023-04-06T15:57:53;1;1;
28026;PMS5003;15344;52.342;-1.290;2023-04-06T16:00:19;1;1;
28026;PMS5003;15344;52.342;-1.290;2023-04-06T16:02:44;2;2;
28026;PMS5003;15344;52.342;-1.290;2023-04-06T16:05:09;4;3;
28026;PMS5003;15344;52.342;-1.290;2023-04-06T16:07:34;1;1;
28026;PMS5003;15344;52.342;-1.290;2023-04-06T16:10:00;1;1;
28026;PMS5003;15344;52.342;-1.290;2023-04-06T16:12:25;1;1;
28026;PMS5003;15344;52.342;-1.290;2023-04-06T16:14:50;6;5;
28026;PMS5003;15344;52.342;-1.290;2023-04-06T16:17:15;4;3;
28026;PMS5003;15344;52.342;-1.290;2023-04-06T16:19:41;1;1;
28026;PMS5003;15344;52.342;-1.290;2023-04-06T16:22:06;3;2;